Time;durP1;ratioP1;P1;durP2;ratioP2;P2;SDS_P1;SDS_P2;PMS_P1;PMS_P2;Temp;Humidity;BMP_temperature;BMP_pressure;BME280_temperature;BME280_humidity;BME280_pressure;Samples;Min_cycle;Max_cycle;Signal;HPM_P1;HPM_P2
2022/04/20 00:01:08;;;;;;;;;;;18.90;99.90;;;;;;4879950;29;20011;-76
2022/04/20 00:03:35;;;;;;;;;;;19.00;99.90;;;;;;4879190;29;19924;-75
2022/04/20 00:06:01;;;;;;;;;;;19.00;99.90;;;;;;4879739;29;19920;-75
2022/04/20 00:08:29;;;;;;;;;;;19.00;99.90;;;;;;4879410;29;19915;-75
2022/04/20 00:10:56;;;;;;;;;;;19.00;99.90;;;;;;4879613;29;20371;-75
2022/04/20 00:13:23;;;;;;;;;;;19.10;99.90;;;;;;4873320;29;19923;-75
2022/04/20 00:15:49;;;;;;;;;;;19.10;99.90;;;;;;4870759;29;20424;-75
2022/04/20 00:18:16;;;;;;;;;;;19.20;99.90;;;;;;4879133;29;19971;-75
2022/04/20 00:20:43;;;;;;;;;;;19.30;99.90;;;;;;4879021;29;20008;-75
2022/04/20 00:23:10;;;;;;;;;;;19.40;99.90;;;;;;4878693;29;20003;-75
2022/04/20 00:25:36;;;;;;;;;;;19.50;99.90;;;;;;4879211;29;20325;-77
2022/04/20 00:28:03;;;;;;;;;;;19.40;99.90;;;;;;4879469;29;19940;-77
2022/04/20 00:30:30;;;;;;;;;;;19.50;99.90;;;;;;4879643;29;19912;-76
2022/04/20 00:32:56;;;;;;;;;;;19.50;99.90;;;;;;4879401;29;19962;-77
2022/04/20 00:35:23;;;;;;;;;;;19.60;99.90;;;;;;4879413;29;19911;-76
2022/04/20 00:37:50;;;;;;;;;;;19.60;99.90;;;;;;4862691;29;19922;-76
2022/04/20 00:40:17;;;;;;;;;;;19.60;99.90;;;;;;4879557;29;19916;-76
2022/04/20 00:42:44;;;;;;;;;;;19.60;99.90;;;;;;4879573;29;19912;-77
2022/04/20 00:45:12;;;;;;;;;;;19.70;99.90;;;;;;4879519;29;20367;-76
2022/04/20 00:47:43;;;;;;;;;;;19.70;99.90;;;;;;4879291;29;19919;-76
2022/04/20 00:50:10;;;;;;;;;;;19.80;99.90;;;;;;4879394;29;20354;-76
2022/04/20 00:52:36;;;;;;;;;;;19.80;99.90;;;;;;4879289;29;19919;-76
2022/04/20 00:55:04;;;;;;;;;;;19.80;99.90;;;;;;4879208;29;19941;-76
2022/04/20 00:57:30;;;;;;;;;;;20.00;99.90;;;;;;4879414;29;19919;-76
2022/04/20 00:59:59;;;;;;;;;;;20.10;99.90;;;;;;4882620;29;19912;-76
2022/04/20 01:02:30;;;;;;;;;;;20.20;99.90;;;;;;4882896;29;19912;-76
2022/04/20 01:04:57;;;;;;;;;;;20.20;99.90;;;;;;4882836;29;19963;-76
2022/04/20 01:07:24;;;;;;;;;;;20.30;99.90;;;;;;4883255;29;19916;-76
2022/04/20 01:09:50;;;;;;;;;;;20.40;99.90;;;;;;4882646;29;19916;-74
2022/04/20 01:12:18;;;;;;;;;;;20.60;99.90;;;;;;4882972;29;19912;-75
2022/04/20 01:14:45;;;;;;;;;;;20.80;99.90;;;;;;4882785;29;20394;-74
2022/04/20 01:17:11;;;;;;;;;;;21.00;99.90;;;;;;4882837;29;19919;-75
2022/04/20 01:19:39;;;;;;;;;;;21.20;99.90;;;;;;4882642;29;19918;-75
2022/04/20 01:22:06;;;;;;;;;;;21.30;99.90;;;;;;4882683;29;19911;-76
2022/04/20 01:24:33;;;;;;;;;;;21.80;99.90;;;;;;4882826;29;20364;-76
2022/04/20 01:26:59;;;;;;;;;;;22.00;99.90;;;;;;4882656;29;20378;-76
2022/04/20 01:29:26;;;;;;;;;;;21.90;99.90;;;;;;4882663;29;19919;-75
2022/04/20 01:31:53;;;;;;;;;;;21.80;99.90;;;;;;4882236;29;19912;-75
2022/04/20 01:34:20;;;;;;;;;;;21.60;99.90;;;;;;4882327;29;19915;-75
2022/04/20 01:36:47;;;;;;;;;;;21.40;99.90;;;;;;4882498;29;19955;-75
2022/04/20 01:39:13;;;;;;;;;;;21.30;99.90;;;;;;4882410;29;19960;-75
2022/04/20 01:41:40;;;;;;;;;;;21.40;99.90;;;;;;4882042;29;19955;-75
2022/04/20 01:44:07;;;;;;;;;;;21.40;99.90;;;;;;4882422;29;19912;-76
2022/04/20 01:46:33;;;;;;;;;;;21.40;99.90;;;;;;4881975;29;20443;-75
2022/04/20 01:49:01;;;;;;;;;;;21.30;99.90;;;;;;4882109;29;20324;-74
2022/04/20 01:54:13;;;;;;;;;;;21.30;99.90;;;;;;4882453;29;19934;-74
2022/04/20 01:56:40;;;;;;;;;;;21.30;99.90;;;;;;4882005;29;20287;-75
2022/04/20 01:59:07;;;;;;;;;;;21.30;99.90;;;;;;4882058;29;19934;-74
2022/04/20 02:04:18;;;;;;;;;;;21.20;99.90;;;;;;4882078;29;20060;-75
2022/04/20 02:06:45;;;;;;;;;;;21.30;99.90;;;;;;4882050;29;19920;-75
2022/04/20 02:09:12;;;;;;;;;;;21.30;99.90;;;;;;4881575;29;19959;-74
2022/04/20 02:11:39;;;;;;;;;;;21.50;99.90;;;;;;4880713;29;19922;-75
2022/04/20 02:14:05;;;;;;;;;;;21.50;99.90;;;;;;4881630;29;19915;-76
2022/04/20 02:16:32;;;;;;;;;;;21.60;99.90;;;;;;4879360;29;19911;-75
2022/04/20 02:18:59;;;;;;;;;;;21.50;99.90;;;;;;4872340;29;19922;-75
2022/04/20 02:21:25;;;;;;;;;;;21.70;99.90;;;;;;4862550;29;19912;-75
2022/04/20 02:23:52;;;;;;;;;;;21.70;99.90;;;;;;4861992;29;19953;-76
2022/04/20 02:26:19;;;;;;;;;;;21.60;99.90;;;;;;4862306;29;19924;-75
2022/04/20 02:28:45;;;;;;;;;;;21.60;99.90;;;;;;4862348;29;19919;-75
2022/04/20 02:31:12;;;;;;;;;;;21.60;99.90;;;;;;4862187;29;19995;-74
2022/04/20 02:33:39;;;;;;;;;;;21.60;99.90;;;;;;4861725;29;20349;-74
2022/04/20 02:36:05;;;;;;;;;;;21.60;99.90;;;;;;4862081;29;19920;-76
2022/04/20 02:38:32;;;;;;;;;;;21.60;99.90;;;;;;4866119;29;19943;-75
2022/04/20 02:40:59;;;;;;;;;;;21.70;99.90;;;;;;4881361;29;19912;-75
2022/04/20 02:43:26;;;;;;;;;;;21.70;99.90;;;;;;4881107;29;19919;-74
2022/04/20 02:45:52;;;;;;;;;;;21.60;99.90;;;;;;4880758;29;19915;-75
2022/04/20 02:48:19;;;;;;;;;;;21.70;99.90;;;;;;4881206;29;19916;-75
2022/04/20 02:50:46;;;;;;;;;;;21.70;99.90;;;;;;4880890;29;20015;-75
2022/04/20 02:53:13;;;;;;;;;;;21.80;99.90;;;;;;4880821;29;20015;-76
2022/04/20 02:55:42;;;;;;;;;;;21.80;99.90;;;;;;4880785;29;19912;-75
2022/04/20 02:58:09;;;;;;;;;;;21.80;99.90;;;;;;4880711;29;20283;-76
2022/04/20 03:00:36;;;;;;;;;;;21.90;99.90;;;;;;4881029;29;19983;-75
2022/04/20 03:03:02;;;;;;;;;;;21.90;99.90;;;;;;4880767;29;20018;-76
2022/04/20 03:05:29;;;;;;;;;;;21.90;99.90;;;;;;4880543;29;19931;-75
2022/04/20 03:07:56;;;;;;;;;;;22.00;99.90;;;;;;4880501;29;19920;-76
2022/04/20 03:10:23;;;;;;;;;;;22.00;99.90;;;;;;4880687;29;19912;-75
2022/04/20 03:12:49;;;;;;;;;;;22.10;99.90;;;;;;4880690;29;20464;-75
2022/04/20 03:15:16;;;;;;;;;;;22.10;99.90;;;;;;4864031;29;20264;-74
2022/04/20 03:17:43;;;;;;;;;;;22.10;99.90;;;;;;4880323;29;20312;-75
2022/04/20 03:20:10;;;;;;;;;;;22.00;99.90;;;;;;4863643;29;19944;-76
2022/04/20 03:22:37;;;;;;;;;;;22.00;99.90;;;;;;4880101;29;20370;-77
2022/04/20 03:25:04;;;;;;;;;;;22.00;99.90;;;;;;4880270;29;19916;-76
2022/04/20 03:27:31;;;;;;;;;;;21.90;99.90;;;;;;4880150;29;19915;-75
2022/04/20 03:29:58;;;;;;;;;;;21.90;99.90;;;;;;4880479;29;19912;-76
2022/04/20 03:32:24;;;;;;;;;;;22.00;99.90;;;;;;4880305;29;19911;-74
2022/04/20 03:34:51;;;;;;;;;;;22.10;99.90;;;;;;4880219;29;19967;-75
2022/04/20 03:37:18;;;;;;;;;;;22.10;99.90;;;;;;4880166;29;20300;-75
2022/04/20 03:39:45;;;;;;;;;;;22.20;99.90;;;;;;4863180;29;20296;-76
2022/04/20 03:42:11;;;;;;;;;;;22.20;99.90;;;;;;4880121;29;20376;-75
2022/04/20 03:44:39;;;;;;;;;;;22.20;99.90;;;;;;4880031;29;20010;-76
2022/04/20 03:47:06;;;;;;;;;;;22.20;99.90;;;;;;4863125;29;20379;-75
2022/04/20 03:49:33;;;;;;;;;;;22.10;99.90;;;;;;4879807;29;19919;-76
2022/04/20 03:52:01;;;;;;;;;;;22.10;99.90;;;;;;4879804;29;19911;-75
2022/04/20 03:54:27;;;;;;;;;;;22.10;99.90;;;;;;4879719;29;19912;-76
2022/04/20 03:57:03;;;;;;;;;;;22.00;99.90;;;;;;4879715;29;19935;-75
2022/04/20 03:59:31;;;;;;;;;;;21.90;99.90;;;;;;4879771;29;19922;-75
2022/04/20 04:01:57;;;;;;;;;;;21.80;99.90;;;;;;4879874;29;19912;-75
2022/04/20 04:04:24;;;;;;;;;;;21.80;99.90;;;;;;4879763;29;19931;-74
2022/04/20 04:06:51;;;;;;;;;;;21.80;99.90;;;;;;4863171;29;19920;-75
2022/04/20 04:09:18;;;;;;;;;;;21.80;99.90;;;;;;4879751;29;19912;-75
2022/04/20 04:11:44;;;;;;;;;;;21.90;99.90;;;;;;4879755;29;19911;-75
2022/04/20 04:14:11;;;;;;;;;;;21.90;99.90;;;;;;4879729;29;19950;-75
2022/04/20 04:16:38;;;;;;;;;;;22.20;99.90;;;;;;4879492;29;19911;-75
2022/04/20 04:19:05;;;;;;;;;;;22.30;99.90;;;;;;4879806;29;20386;-75
2022/04/20 04:21:32;;;;;;;;;;;22.40;99.90;;;;;;4879438;29;20265;-75
2022/04/20 04:23:59;;;;;;;;;;;22.30;99.90;;;;;;4879386;29;19912;-75
2022/04/20 04:26:27;;;;;;;;;;;22.40;99.90;;;;;;4879571;29;19920;-74
2022/04/20 04:28:54;;;;;;;;;;;22.40;99.90;;;;;;4879627;29;19955;-74
2022/04/20 04:31:20;;;;;;;;;;;22.30;99.50;;;;;;4879768;29;19912;-74
2022/04/20 04:33:47;;;;;;;;;;;22.40;99.60;;;;;;4878634;29;19956;-75
2022/04/20 04:36:14;;;;;;;;;;;22.40;98.80;;;;;;4879510;29;19919;-75
2022/04/20 04:38:40;;;;;;;;;;;22.50;99.10;;;;;;4879508;29;19912;-76
2022/04/20 04:41:07;;;;;;;;;;;22.40;97.90;;;;;;4879528;29;20356;-75
2022/04/20 04:43:34;;;;;;;;;;;22.30;96.60;;;;;;4879331;29;19959;-76
2022/04/20 04:48:48;;;;;;;;;;;22.40;96.50;;;;;;4879689;29;19997;-75
2022/04/20 04:51:16;;;;;;;;;;;22.40;96.60;;;;;;4879292;29;20403;-76
2022/04/20 04:53:43;;;;;;;;;;;22.50;97.00;;;;;;4879108;29;20367;-75
2022/04/20 04:56:09;;;;;;;;;;;22.50;96.50;;;;;;4879394;29;19927;-76
2022/04/20 04:58:36;;;;;;;;;;;22.50;96.40;;;;;;4879408;29;19918;-75
2022/04/20 05:01:02;;;;;;;;;;;22.40;95.90;;;;;;4879478;29;19912;-75
2022/04/20 05:03:29;;;;;;;;;;;22.40;96.00;;;;;;4879032;29;19984;-75
2022/04/20 05:05:56;;;;;;;;;;;22.40;96.60;;;;;;4879331;29;20015;-76
2022/04/20 05:08:23;;;;;;;;;;;22.40;96.80;;;;;;4879253;29;20372;-76
2022/04/20 05:10:49;;;;;;;;;;;22.40;96.20;;;;;;4879066;29;19920;-75
2022/04/20 05:13:16;;;;;;;;;;;22.40;96.60;;;;;;4879100;29;20363;-75
2022/04/20 05:15:43;;;;;;;;;;;22.40;95.50;;;;;;4879065;29;20368;-75
2022/04/20 05:18:10;;;;;;;;;;;22.40;95.60;;;;;;4879231;29;19912;-75
2022/04/20 05:20:36;;;;;;;;;;;22.40;95.70;;;;;;4879209;29;19919;-75
2022/04/20 05:23:06;;;;;;;;;;;22.40;95.60;;;;;;4878865;29;19915;-74
2022/04/20 05:25:33;;;;;;;;;;;22.50;95.60;;;;;;4879222;29;20284;-74
2022/04/20 05:27:59;;;;;;;;;;;22.40;95.30;;;;;;4879169;29;20375;-74
2022/04/20 05:30:26;;;;;;;;;;;22.50;95.80;;;;;;4878991;29;19967;-74
2022/04/20 05:32:52;;;;;;;;;;;22.40;95.50;;;;;;4879034;29;19912;-74
2022/04/20 05:35:19;;;;;;;;;;;22.40;95.50;;;;;;4878935;29;19951;-75
2022/04/20 05:43:15;;;;;;;;;;;22.40;95.20;;;;;;4879313;29;19959;-75
2022/04/20 05:45:41;;;;;;;;;;;22.40;95.10;;;;;;4881067;29;19971;-75
2022/04/20 05:48:08;;;;;;;;;;;22.40;95.20;;;;;;4882152;29;19919;-75
2022/04/20 05:50:35;;;;;;;;;;;22.40;95.60;;;;;;4881900;29;19912;-75
2022/04/20 05:53:02;;;;;;;;;;;22.40;95.40;;;;;;4881976;29;19911;-75
2022/04/20 05:55:28;;;;;;;;;;;22.30;95.40;;;;;;4881945;29;19955;-76
2022/04/20 05:57:55;;;;;;;;;;;22.30;95.60;;;;;;4881814;29;20006;-74
2022/04/20 06:00:21;;;;;;;;;;;22.30;95.10;;;;;;4881970;29;20025;-75
2022/04/20 06:02:48;;;;;;;;;;;22.30;95.60;;;;;;4881503;29;19959;-75
2022/04/20 06:05:15;;;;;;;;;;;22.30;95.50;;;;;;4881661;29;20269;-75
2022/04/20 06:07:41;;;;;;;;;;;22.30;95.80;;;;;;4864681;29;19919;-75
2022/04/20 06:10:08;;;;;;;;;;;22.20;95.60;;;;;;4881832;29;19912;-74
2022/04/20 06:12:35;;;;;;;;;;;22.20;95.60;;;;;;4865062;29;20364;-75
2022/04/20 06:15:02;;;;;;;;;;;22.20;95.90;;;;;;4881855;29;20408;-75
2022/04/20 06:17:28;;;;;;;;;;;22.10;95.50;;;;;;4881534;29;20256;-75
2022/04/20 06:19:55;;;;;;;;;;;22.10;96.10;;;;;;4870767;29;19916;-75
2022/04/20 06:22:22;;;;;;;;;;;22.00;96.10;;;;;;4862061;29;20321;-76
2022/04/20 06:24:49;;;;;;;;;;;22.10;96.40;;;;;;4862993;29;20414;-75
2022/04/20 06:27:16;;;;;;;;;;;22.00;96.10;;;;;;4862774;29;19920;-75
2022/04/20 06:29:42;;;;;;;;;;;22.00;96.20;;;;;;4862644;29;20364;-75
2022/04/20 06:32:09;;;;;;;;;;;22.00;95.90;;;;;;4862719;29;19962;-76
2022/04/20 06:34:36;;;;;;;;;;;21.90;96.20;;;;;;4862797;29;20340;-75
2022/04/20 06:37:05;;;;;;;;;;;21.90;96.20;;;;;;4862535;29;20288;-76
2022/04/20 06:39:32;;;;;;;;;;;21.80;96.50;;;;;;4862589;29;19912;-76
2022/04/20 06:42:01;;;;;;;;;;;21.80;96.20;;;;;;4862508;29;20007;-75
2022/04/20 06:44:28;;;;;;;;;;;21.70;96.40;;;;;;4862505;29;20283;-76
2022/04/20 06:46:54;;;;;;;;;;;21.80;96.60;;;;;;4862349;29;19975;-76
2022/04/20 06:49:21;;;;;;;;;;;21.80;96.80;;;;;;4862405;29;20287;-75
2022/04/20 07:00:02;;;;;;;;;;;21.50;96.90;;;;;;4860336;29;19919;-75
2022/04/20 07:02:29;;;;;;;;;;;21.50;97.10;;;;;;4859826;29;19921;-76
2022/04/20 07:04:56;;;;;;;;;;;21.50;97.40;;;;;;4859775;29;19928;-76
2022/04/20 07:07:22;;;;;;;;;;;21.40;97.80;;;;;;4859930;29;19920;-75
2022/04/20 07:09:49;;;;;;;;;;;21.30;98.40;;;;;;4859794;29;19918;-76
2022/04/20 07:12:16;;;;;;;;;;;21.20;98.00;;;;;;4859965;29;19938;-75
2022/04/20 07:14:42;;;;;;;;;;;21.20;98.40;;;;;;4860022;29;20616;-76
2022/04/20 07:17:09;;;;;;;;;;;21.00;98.80;;;;;;4859672;29;19944;-76
2022/04/20 07:19:36;;;;;;;;;;;21.00;99.00;;;;;;4859599;29;19916;-75
2022/04/20 07:22:03;;;;;;;;;;;20.90;98.50;;;;;;4859832;29;20424;-75
2022/04/20 07:24:31;;;;;;;;;;;20.90;98.10;;;;;;4858385;29;20283;-76
2022/04/20 07:26:57;;;;;;;;;;;20.90;98.60;;;;;;4858503;29;20407;-76
2022/04/20 07:29:24;;;;;;;;;;;20.90;98.60;;;;;;4859880;29;19916;-76
2022/04/20 07:31:51;;;;;;;;;;;20.90;99.00;;;;;;4859236;29;19924;-76
2022/04/20 07:34:17;;;;;;;;;;;20.80;98.70;;;;;;4859769;29;19912;-75
2022/04/20 07:36:44;;;;;;;;;;;20.90;98.90;;;;;;4859608;29;19968;-76
2022/04/20 07:39:10;;;;;;;;;;;20.80;99.20;;;;;;4859605;29;20369;-76
2022/04/20 07:41:39;;;;;;;;;;;20.80;99.40;;;;;;4859316;29;20281;-75
2022/04/20 07:44:06;;;;;;;;;;;20.70;99.50;;;;;;4858983;29;19916;-75
2022/04/20 07:46:32;;;;;;;;;;;20.70;99.70;;;;;;4859234;29;19926;-75
2022/04/20 07:50:17;;;;;;;;;;;20.60;99.90;;;;;;4859046;29;19952;-75
2022/04/20 07:51:45;;;;;;;;;;;20.50;99.60;;;;;;4858796;29;19919;-75
2022/04/20 07:54:12;;;;;;;;;;;20.60;99.90;;;;;;4859223;29;20024;-75
2022/04/20 07:56:38;;;;;;;;;;;20.50;99.60;;;;;;4858697;29;19912;-75
2022/04/20 07:59:05;;;;;;;;;;;20.50;99.90;;;;;;4859206;29;19912;-75
2022/04/20 08:01:32;;;;;;;;;;;20.40;99.90;;;;;;4858816;29;20435;-75
2022/04/20 08:03:58;;;;;;;;;;;20.40;99.90;;;;;;4858933;29;19938;-75
2022/04/20 08:06:27;;;;;;;;;;;20.30;99.90;;;;;;4858652;29;19924;-75
2022/04/20 08:08:53;;;;;;;;;;;20.20;99.90;;;;;;4858886;29;19913;-75
2022/04/20 08:11:20;;;;;;;;;;;20.20;99.90;;;;;;4858805;29;19912;-74
2022/04/20 08:16:52;;;;;;;;;;;20.10;99.80;;;;;;4820248;29;19952;-75
2022/04/20 08:19:18;;;;;;;;;;;20.10;99.90;;;;;;4820247;29;19920;-74
2022/04/20 08:21:45;;;;;;;;;;;20.10;99.90;;;;;;4838194;29;19912;-74
2022/04/20 08:24:11;;;;;;;;;;;20.00;99.90;;;;;;4858814;29;19935;-75
2022/04/20 08:26:38;;;;;;;;;;;20.00;99.90;;;;;;4858775;29;19926;-74
2022/04/20 08:29:10;;;;;;;;;;;19.90;99.90;;;;;;4858591;29;19924;-75
2022/04/20 08:31:37;;;;;;;;;;;19.90;99.90;;;;;;4857175;29;20360;-75
2022/04/20 08:34:04;;;;;;;;;;;19.90;99.90;;;;;;4858837;29;19912;-75
2022/04/20 08:36:31;;;;;;;;;;;19.80;99.90;;;;;;4858436;29;19912;-75
2022/04/20 08:38:57;;;;;;;;;;;19.80;99.90;;;;;;4858534;29;19999;-76
2022/04/20 08:41:24;;;;;;;;;;;19.80;99.30;;;;;;4858854;29;20015;-75
2022/04/20 08:43:51;;;;;;;;;;;19.80;99.90;;;;;;4857691;29;19923;-76
2022/04/20 08:46:18;;;;;;;;;;;19.80;99.90;;;;;;4858512;29;19949;-75
2022/04/20 08:48:44;;;;;;;;;;;19.70;99.90;;;;;;4858652;29;19965;-75
2022/04/20 08:51:11;;;;;;;;;;;19.60;99.90;;;;;;4858659;29;19916;-75
2022/04/20 08:53:38;;;;;;;;;;;19.50;99.90;;;;;;4858191;29;20010;-76
2022/04/20 08:58:50;;;;;;;;;;;19.40;99.90;;;;;;4858153;29;19923;-76
2022/04/20 09:01:18;;;;;;;;;;;19.40;99.90;;;;;;4858325;29;20015;-76
2022/04/20 09:03:48;;;;;;;;;;;19.40;99.90;;;;;;4857001;29;20384;-76
2022/04/20 09:06:15;;;;;;;;;;;19.30;99.90;;;;;;4859613;29;20019;-76
2022/04/20 09:08:43;;;;;;;;;;;19.30;99.90;;;;;;4860595;29;19961;-76
2022/04/20 09:11:09;;;;;;;;;;;19.30;99.90;;;;;;4860498;29;19920;-76
2022/04/20 09:13:41;;;;;;;;;;;19.30;99.90;;;;;;4860467;29;20373;-75
2022/04/20 09:16:09;;;;;;;;;;;19.30;99.90;;;;;;4860351;29;19919;-75
2022/04/20 09:18:36;;;;;;;;;;;19.30;99.90;;;;;;4860466;29;19919;-76
2022/04/20 09:21:10;;;;;;;;;;;19.20;99.90;;;;;;4863402;29;19912;-75
2022/04/20 09:23:38;;;;;;;;;;;19.20;99.90;;;;;;4863770;29;19960;-75
2022/04/20 09:26:13;;;;;;;;;;;19.20;99.90;;;;;;4863797;29;19928;-76
2022/04/20 09:28:42;;;;;;;;;;;19.10;99.90;;;;;;4863950;29;19966;-76
2022/04/20 09:31:13;;;;;;;;;;;19.10;99.90;;;;;;4863733;29;19937;-76
2022/04/20 09:33:43;;;;;;;;;;;19.10;99.90;;;;;;4863692;29;20289;-76
2022/04/20 09:36:09;;;;;;;;;;;19.00;99.90;;;;;;4863533;29;20245;-76
2022/04/20 09:38:39;;;;;;;;;;;19.00;99.90;;;;;;4862609;29;20317;-76
2022/04/20 09:41:08;;;;;;;;;;;19.10;99.90;;;;;;4863736;29;19912;-75
2022/04/20 09:43:35;;;;;;;;;;;19.20;99.90;;;;;;4863366;29;20420;-74
2022/04/20 09:48:50;;;;;;;;;;;19.20;99.90;;;;;;4863576;29;20030;-76
2022/04/20 09:49:03;;;;;;;;;;;19.10;99.90;;;;;;4863526;29;19912;-76
2022/04/20 09:51:36;;;;;;;;;;;19.10;99.90;;;;;;4863143;29;19940;-75
2022/04/20 09:54:02;;;;;;;;;;;19.10;99.90;;;;;;4863379;29;19919;-73
2022/04/20 09:56:29;;;;;;;;;;;19.00;99.60;;;;;;4863223;29;19912;-75
2022/04/20 09:59:00;;;;;;;;;;;19.00;99.50;;;;;;4863452;29;19934;-75
2022/04/20 10:01:36;;;;;;;;;;;19.00;99.90;;;;;;4863344;29;20413;-76
2022/04/20 10:04:04;;;;;;;;;;;18.90;99.60;;;;;;4863173;29;20360;-75
2022/04/20 10:06:31;;;;;;;;;;;18.90;99.90;;;;;;4863004;29;19927;-76
2022/04/20 10:08:58;;;;;;;;;;;18.80;99.90;;;;;;4863215;29;20253;-76
2022/04/20 10:11:25;;;;;;;;;;;18.70;99.90;;;;;;4863313;29;19919;-76
2022/04/20 10:16:48;;;;;;;;;;;18.70;99.70;;;;;;4843224;29;19919;-76
2022/04/20 10:19:17;;;;;;;;;;;18.60;99.10;;;;;;4862892;29;19968;-76
2022/04/20 10:21:52;;;;;;;;;;;18.60;99.90;;;;;;4862581;29;19928;-75
2022/04/20 10:24:23;;;;;;;;;;;18.60;99.90;;;;;;4862811;29;20452;-76
2022/04/20 10:26:50;;;;;;;;;;;18.70;97.40;;;;;;4862925;29;20122;-76
2022/04/20 10:29:30;;;;;;;;;;;18.70;99.30;;;;;;4862796;29;19924;-76
2022/04/20 10:32:22;;;;;;;;;;;18.70;99.90;;;;;;4861540;29;19951;-76
2022/04/20 10:34:52;;;;;;;;;;;18.70;99.90;;;;;;4862629;29;19923;-74
2022/04/20 10:37:21;;;;;;;;;;;18.60;99.90;;;;;;4862699;29;20408;-74
2022/04/20 10:39:47;;;;;;;;;;;18.60;99.90;;;;;;4861793;29;19964;-74
2022/04/20 10:42:16;;;;;;;;;;;18.60;99.90;;;;;;4862639;29;19937;-74
2022/04/20 10:45:01;;;;;;;;;;;18.50;99.90;;;;;;4862554;29;19948;-76
2022/04/20 10:47:29;;;;;;;;;;;18.60;99.90;;;;;;4862530;29;19928;-77
2022/04/20 10:50:13;;;;;;;;;;;18.50;99.90;;;;;;4862240;29;20288;-75
2022/04/20 10:52:41;;;;;;;;;;;18.50;99.90;;;;;;4862598;29;19919;-76
2022/04/20 10:55:12;;;;;;;;;;;18.40;99.90;;;;;;4861804;29;20284;-77
2022/04/20 10:57:39;;;;;;;;;;;18.30;98.60;;;;;;4862165;29;19913;-76
2022/04/20 11:00:18;;;;;;;;;;;18.40;99.90;;;;;;4862217;29;19920;-76
2022/04/20 11:02:51;;;;;;;;;;;18.40;99.90;;;;;;4861932;29;19920;-76
2022/04/20 11:05:21;;;;;;;;;;;18.40;98.70;;;;;;4861843;29;19912;-76
2022/04/20 11:08:00;;;;;;;;;;;18.30;96.90;;;;;;4862085;29;19912;-76
2022/04/20 11:10:27;;;;;;;;;;;18.40;96.90;;;;;;4861771;29;19931;-76
2022/04/20 11:19:03;;;;;;;;;;;18.50;95.20;;;;;;4861917;29;20407;-75
2022/04/20 11:21:30;;;;;;;;;;;18.50;95.70;;;;;;4861518;29;20056;-77
2022/04/20 11:23:59;;;;;;;;;;;18.50;95.70;;;;;;4861451;29;19952;-76
2022/04/20 11:26:37;;;;;;;;;;;18.50;95.50;;;;;;4861610;29;19992;-77
2022/04/20 11:29:17;;;;;;;;;;;18.40;95.30;;;;;;4861811;29;19912;-76
2022/04/20 11:31:51;;;;;;;;;;;18.40;95.50;;;;;;4861477;29;19956;-75
2022/04/20 11:34:20;;;;;;;;;;;18.40;95.60;;;;;;4861491;29;19912;-73
2022/04/20 11:36:48;;;;;;;;;;;18.40;95.70;;;;;;4861665;29;19919;-73
2022/04/20 11:39:16;;;;;;;;;;;18.40;95.60;;;;;;4861211;29;19919;-73
2022/04/20 11:41:53;;;;;;;;;;;18.40;95.70;;;;;;4861230;29;20364;-72
2022/04/20 11:44:23;;;;;;;;;;;18.30;95.80;;;;;;4861674;29;19912;-72
2022/04/20 11:46:51;;;;;;;;;;;18.30;96.00;;;;;;4861560;29;19928;-73
2022/04/20 11:49:18;;;;;;;;;;;18.20;96.00;;;;;;4861578;29;19912;-75
2022/04/20 11:51:46;;;;;;;;;;;18.20;95.70;;;;;;4861137;29;20364;-75
2022/04/20 11:54:22;;;;;;;;;;;18.20;96.00;;;;;;4860923;29;20277;-73
2022/04/20 11:56:48;;;;;;;;;;;18.10;95.90;;;;;;4861487;29;19912;-73
2022/04/20 11:59:17;;;;;;;;;;;18.10;96.30;;;;;;4861258;29;19934;-75
2022/04/20 12:01:44;;;;;;;;;;;18.10;95.90;;;;;;4861029;29;19913;-74
2022/04/20 12:04:11;;;;;;;;;;;18.10;96.10;;;;;;4861074;29;20344;-75
2022/04/20 12:06:43;;;;;;;;;;;18.00;96.50;;;;;;4861042;29;19927;-74
2022/04/20 12:09:09;;;;;;;;;;;18.00;96.60;;;;;;4860789;29;20464;-75
2022/04/20 12:11:36;;;;;;;;;;;18.00;96.90;;;;;;4860914;29;20291;-73
2022/04/20 12:14:03;;;;;;;;;;;18.00;96.80;;;;;;4861185;29;19912;-73
2022/04/20 12:16:33;;;;;;;;;;;17.90;97.10;;;;;;4861106;29;19916;-72
2022/04/20 12:19:00;;;;;;;;;;;17.90;97.30;;;;;;4861158;29;20368;-74
2022/04/20 12:21:43;;;;;;;;;;;17.80;97.70;;;;;;4861057;29;19912;-75
2022/04/20 12:24:10;;;;;;;;;;;17.80;98.10;;;;;;4860468;29;19984;-75
2022/04/20 12:26:40;;;;;;;;;;;17.70;98.00;;;;;;4861013;29;19920;-72
2022/04/20 12:29:08;;;;;;;;;;;17.70;98.40;;;;;;4861029;29;20309;-73
2022/04/20 12:31:38;;;;;;;;;;;17.60;98.40;;;;;;4860863;29;19912;-73
2022/04/20 12:34:06;;;;;;;;;;;17.60;98.40;;;;;;4861064;29;19960;-72
2022/04/20 12:36:49;;;;;;;;;;;17.50;98.10;;;;;;4860945;29;19919;-73
2022/04/20 12:39:26;;;;;;;;;;;17.50;98.30;;;;;;4860420;29;19917;-73
2022/04/20 12:41:56;;;;;;;;;;;17.50;99.00;;;;;;4860763;29;19912;-73
2022/04/20 12:44:46;;;;;;;;;;;17.50;98.40;;;;;;4860854;29;19931;-74
2022/04/20 12:47:16;;;;;;;;;;;17.50;99.90;;;;;;4860652;29;19963;-72
2022/04/20 12:49:44;;;;;;;;;;;17.50;98.90;;;;;;4860649;29;19916;-72
2022/04/20 12:52:12;;;;;;;;;;;17.50;99.60;;;;;;4860427;29;19913;-73
2022/04/20 12:54:38;;;;;;;;;;;17.50;99.40;;;;;;4861868;29;19919;-74
2022/04/20 13:03:02;;;;;;;;;;;17.30;99.70;;;;;;4864630;29;20444;-74
2022/04/20 13:05:29;;;;;;;;;;;17.20;99.90;;;;;;4864354;29;20265;-72
2022/04/20 13:07:56;;;;;;;;;;;17.20;99.90;;;;;;4863793;29;19912;-73
2022/04/20 13:10:22;;;;;;;;;;;17.20;99.90;;;;;;4864451;29;19919;-72
2022/04/20 13:12:49;;;;;;;;;;;17.20;99.90;;;;;;4864245;29;19935;-72
2022/04/20 13:15:16;;;;;;;;;;;17.30;99.90;;;;;;4864336;29;20403;-75
2022/04/20 13:17:42;;;;;;;;;;;17.20;99.60;;;;;;4863922;29;19912;-74
2022/04/20 13:20:10;;;;;;;;;;;17.10;99.20;;;;;;4863840;29;19917;-74
2022/04/20 13:22:36;;;;;;;;;;;17.10;99.60;;;;;;4863516;29;19919;-76
2022/04/20 13:27:54;;;;;;;;;;;17.10;99.40;;;;;;4863880;29;20007;-73
2022/04/20 13:30:21;;;;;;;;;;;17.00;99.60;;;;;;4863587;29;19912;-76
2022/04/20 13:32:51;;;;;;;;;;;17.00;99.30;;;;;;4864046;29;19912;-72
2022/04/20 13:35:18;;;;;;;;;;;16.90;99.30;;;;;;4863926;29;19968;-72
2022/04/20 13:37:45;;;;;;;;;;;16.90;99.70;;;;;;4863862;29;20413;-74
2022/04/20 13:40:11;;;;;;;;;;;16.90;99.90;;;;;;4863957;29;19943;-74
2022/04/20 13:42:38;;;;;;;;;;;17.00;99.90;;;;;;4863851;29;19922;-73
2022/04/20 13:45:05;;;;;;;;;;;17.00;99.90;;;;;;4863711;29;19932;-72
2022/04/20 13:47:32;;;;;;;;;;;17.00;99.90;;;;;;4863896;29;19920;-73
2022/04/20 13:50:00;;;;;;;;;;;17.00;99.90;;;;;;4863628;29;19913;-74
2022/04/20 13:52:27;;;;;;;;;;;17.00;99.90;;;;;;4863557;29;20371;-73
2022/04/20 13:54:54;;;;;;;;;;;17.00;99.90;;;;;;4863703;29;19919;-76
2022/04/20 13:57:21;;;;;;;;;;;17.00;99.90;;;;;;4863679;29;19912;-73
2022/04/20 13:59:47;;;;;;;;;;;17.00;99.90;;;;;;4863185;29;20489;-73
2022/04/20 14:02:14;;;;;;;;;;;17.10;99.90;;;;;;4863531;29;19991;-72
2022/04/20 14:04:41;;;;;;;;;;;17.10;99.90;;;;;;4863388;29;19924;-72
2022/04/20 14:07:08;;;;;;;;;;;17.10;99.90;;;;;;4863198;29;19968;-73
2022/04/20 14:09:35;;;;;;;;;;;17.00;99.90;;;;;;4863115;29;19912;-74
2022/04/20 14:12:03;;;;;;;;;;;17.00;99.90;;;;;;4863346;29;20283;-73
2022/04/20 14:14:30;;;;;;;;;;;17.00;99.90;;;;;;4863355;29;19916;-76
2022/04/20 14:16:57;;;;;;;;;;;17.00;99.90;;;;;;4863305;29;19912;-76
2022/04/20 14:19:24;;;;;;;;;;;17.00;99.90;;;;;;4863005;29;19912;-74
2022/04/20 14:21:51;;;;;;;;;;;17.00;99.90;;;;;;4862901;29;19912;-75
2022/04/20 14:24:19;;;;;;;;;;;17.00;99.90;;;;;;4863002;29;19916;-74
2022/04/20 14:32:17;;;;;;;;;;;17.00;99.90;;;;;;4863306;29;19996;-75
2022/04/20 14:34:48;;;;;;;;;;;17.00;99.90;;;;;;4862875;29;20061;-74
2022/04/20 14:37:16;;;;;;;;;;;16.90;99.90;;;;;;4862870;29;20025;-76
2022/04/20 14:39:43;;;;;;;;;;;16.90;99.90;;;;;;4862693;29;19952;-76
2022/04/20 14:42:11;;;;;;;;;;;16.80;99.90;;;;;;4862764;29;20288;-76
2022/04/20 14:44:38;;;;;;;;;;;16.80;99.90;;;;;;4862744;29;20356;-75
2022/04/20 14:47:08;;;;;;;;;;;16.80;99.90;;;;;;4862628;29;20364;-76
2022/04/20 14:49:36;;;;;;;;;;;16.80;99.90;;;;;;4862369;29;19919;-76
2022/04/20 14:52:03;;;;;;;;;;;16.70;99.90;;;;;;4862646;29;19912;-76
2022/04/20 14:54:30;;;;;;;;;;;16.70;99.90;;;;;;4862706;29;19920;-75
2022/04/20 14:56:57;;;;;;;;;;;16.60;99.90;;;;;;4862585;29;19944;-75
2022/04/20 14:59:23;;;;;;;;;;;16.60;99.90;;;;;;4862559;29;20011;-75
2022/04/20 15:01:50;;;;;;;;;;;16.60;99.90;;;;;;4862360;29;20006;-76
2022/04/20 15:04:17;;;;;;;;;;;16.60;99.90;;;;;;4862252;29;20327;-78
2022/04/20 15:06:43;;;;;;;;;;;16.60;99.90;;;;;;4862334;29;19926;-77
2022/04/20 15:09:10;;;;;;;;;;;16.60;99.90;;;;;;4862381;29;19963;-77
2022/04/20 15:11:37;;;;;;;;;;;16.60;99.90;;;;;;4862045;29;20302;-76